sensor_id;sensor_type;location;lat;lon;timestamp;P1;durP1;ratioP1;P2;durP2;ratioP2
4634;SDS011;2330;48.158;11.816;2022-08-30T00:00:49;7.17;;;6.57;;
4634;SDS011;2330;48.158;11.816;2022-08-30T00:06:04;7.53;;;6.93;;
4634;SDS011;2330;48.158;11.816;2022-08-30T00:08:33;7.70;;;7.00;;
4634;SDS011;2330;48.158;11.816;2022-08-30T00:11:02;7.83;;;6.83;;
4634;SDS011;2330;48.158;11.816;2022-08-30T00:13:31;8.80;;;7.83;;
4634;SDS011;2330;48.158;11.816;2022-08-30T00:15:57;7.00;;;6.30;;
4634;SDS011;2330;48.158;11.816;2022-08-30T00:18:25;6.57;;;6.07;;
4634;SDS011;2330;48.158;11.816;2022-08-30T00:20:52;6.93;;;6.23;;
4634;SDS011;2330;48.158;11.816;2022-08-30T00:23:20;8.63;;;6.57;;
4634;SDS011;2330;48.158;11.816;2022-08-30T00:25:48;7.30;;;6.70;;
4634;SDS011;2330;48.158;11.816;2022-08-30T00:28:14;11.90;;;7.57;;
4634;SDS011;2330;48.158;11.816;2022-08-30T00:30:42;6.83;;;6.07;;
4634;SDS011;2330;48.158;11.816;2022-08-30T00:33:09;7.50;;;6.80;;
4634;SDS011;2330;48.158;11.816;2022-08-30T00:35:37;9.70;;;7.20;;
4634;SDS011;2330;48.158;11.816;2022-08-30T00:38:05;8.87;;;6.80;;
4634;SDS011;2330;48.158;11.816;2022-08-30T00:40:33;6.93;;;6.33;;
4634;SDS011;2330;48.158;11.816;2022-08-30T00:43:02;7.50;;;6.90;;
4634;SDS011;2330;48.158;11.816;2022-08-30T00:45:32;11.90;;;6.40;;
4634;SDS011;2330;48.158;11.816;2022-08-30T00:48:01;8.03;;;6.43;;
4634;SDS011;2330;48.158;11.816;2022-08-30T00:50:43;6.53;;;6.03;;
4634;SDS011;2330;48.158;11.816;2022-08-30T00:53:14;6.57;;;6.07;;
4634;SDS011;2330;48.158;11.816;2022-08-30T00:55:45;10.27;;;6.50;;
4634;SDS011;2330;48.158;11.816;2022-08-30T00:58:15;6.43;;;5.83;;
4634;SDS011;2330;48.158;11.816;2022-08-30T01:00:48;6.90;;;5.90;;
4634;SDS011;2330;48.158;11.816;2022-08-30T01:03:16;6.47;;;5.83;;
4634;SDS011;2330;48.158;11.816;2022-08-30T01:05:43;8.10;;;6.47;;
4634;SDS011;2330;48.158;11.816;2022-08-30T01:08:12;7.50;;;6.80;;
4634;SDS011;2330;48.158;11.816;2022-08-30T01:10:40;9.07;;;6.03;;
4634;SDS011;2330;48.158;11.816;2022-08-30T01:13:09;9.97;;;6.30;;
4634;SDS011;2330;48.158;11.816;2022-08-30T01:15:39;12.00;;;6.83;;
4634;SDS011;2330;48.158;11.816;2022-08-30T01:18:08;6.57;;;5.97;;
4634;SDS011;2330;48.158;11.816;2022-08-30T01:23:32;6.87;;;6.33;;
4634;SDS011;2330;48.158;11.816;2022-08-30T01:26:03;11.03;;;6.40;;
4634;SDS011;2330;48.158;11.816;2022-08-30T01:28:31;6.83;;;6.13;;
4634;SDS011;2330;48.158;11.816;2022-08-30T01:30:59;7.43;;;6.80;;
4634;SDS011;2330;48.158;11.816;2022-08-30T01:33:27;6.67;;;6.07;;
4634;SDS011;2330;48.158;11.816;2022-08-30T01:35:57;7.10;;;6.50;;
4634;SDS011;2330;48.158;11.816;2022-08-30T01:38:27;6.67;;;6.10;;
4634;SDS011;2330;48.158;11.816;2022-08-30T01:43:50;6.27;;;5.67;;
4634;SDS011;2330;48.158;11.816;2022-08-30T01:46:20;6.63;;;6.10;;
4634;SDS011;2330;48.158;11.816;2022-08-30T01:48:51;9.90;;;6.57;;
4634;SDS011;2330;48.158;11.816;2022-08-30T01:51:20;8.30;;;6.20;;
4634;SDS011;2330;48.158;11.816;2022-08-30T01:53:48;6.37;;;5.83;;
4634;SDS011;2330;48.158;11.816;2022-08-30T01:56:17;6.40;;;5.80;;
4634;SDS011;2330;48.158;11.816;2022-08-30T01:58:44;6.30;;;5.70;;
4634;SDS011;2330;48.158;11.816;2022-08-30T02:01:12;10.23;;;5.53;;
4634;SDS011;2330;48.158;11.816;2022-08-30T02:03:41;5.20;;;4.80;;
4634;SDS011;2330;48.158;11.816;2022-08-30T02:06:11;5.97;;;5.43;;
4634;SDS011;2330;48.158;11.816;2022-08-30T02:08:41;9.70;;;6.00;;
4634;SDS011;2330;48.158;11.816;2022-08-30T02:11:08;7.03;;;6.43;;
4634;SDS011;2330;48.158;11.816;2022-08-30T02:13:36;7.50;;;6.13;;
4634;SDS011;2330;48.158;11.816;2022-08-30T02:16:06;5.70;;;5.20;;
4634;SDS011;2330;48.158;11.816;2022-08-30T02:18:34;6.27;;;5.67;;
4634;SDS011;2330;48.158;11.816;2022-08-30T02:21:02;6.00;;;5.50;;
4634;SDS011;2330;48.158;11.816;2022-08-30T02:23:29;7.43;;;6.73;;
4634;SDS011;2330;48.158;11.816;2022-08-30T02:25:56;7.20;;;6.60;;
4634;SDS011;2330;48.158;11.816;2022-08-30T02:28:23;7.50;;;6.80;;
4634;SDS011;2330;48.158;11.816;2022-08-30T02:30:51;7.10;;;6.40;;
4634;SDS011;2330;48.158;11.816;2022-08-30T02:33:18;6.83;;;6.20;;
4634;SDS011;2330;48.158;11.816;2022-08-30T02:35:45;7.30;;;6.70;;
4634;SDS011;2330;48.158;11.816;2022-08-30T02:38:12;7.20;;;6.50;;
4634;SDS011;2330;48.158;11.816;2022-08-30T02:40:38;7.00;;;6.30;;
4634;SDS011;2330;48.158;11.816;2022-08-30T02:43:05;7.73;;;7.13;;
4634;SDS011;2330;48.158;11.816;2022-08-30T02:45:32;10.93;;;8.17;;
4634;SDS011;2330;48.158;11.816;2022-08-30T02:47:59;10.73;;;7.00;;
4634;SDS011;2330;48.158;11.816;2022-08-30T02:50:26;8.87;;;6.60;;
4634;SDS011;2330;48.158;11.816;2022-08-30T02:52:53;8.30;;;7.30;;
4634;SDS011;2330;48.158;11.816;2022-08-30T02:55:20;7.90;;;7.03;;
4634;SDS011;2330;48.158;11.816;2022-08-30T02:57:48;8.10;;;7.30;;
4634;SDS011;2330;48.158;11.816;2022-08-30T03:00:17;8.47;;;7.77;;
4634;SDS011;2330;48.158;11.816;2022-08-30T03:02:45;8.50;;;7.70;;
4634;SDS011;2330;48.158;11.816;2022-08-30T03:05:13;8.60;;;7.80;;
4634;SDS011;2330;48.158;11.816;2022-08-30T03:07:41;8.43;;;7.63;;
4634;SDS011;2330;48.158;11.816;2022-08-30T03:10:08;9.37;;;8.47;;
4634;SDS011;2330;48.158;11.816;2022-08-30T03:12:36;7.90;;;7.30;;
4634;SDS011;2330;48.158;11.816;2022-08-30T03:15:04;7.23;;;6.60;;
4634;SDS011;2330;48.158;11.816;2022-08-30T03:17:31;7.80;;;7.10;;
4634;SDS011;2330;48.158;11.816;2022-08-30T03:19:58;8.23;;;7.47;;
4634;SDS011;2330;48.158;11.816;2022-08-30T03:22:27;8.00;;;7.00;;
4634;SDS011;2330;48.158;11.816;2022-08-30T03:24:54;10.33;;;7.77;;
4634;SDS011;2330;48.158;11.816;2022-08-30T03:27:26;8.40;;;7.70;;
4634;SDS011;2330;48.158;11.816;2022-08-30T03:29:54;9.13;;;8.33;;
4634;SDS011;2330;48.158;11.816;2022-08-30T03:32:21;10.50;;;7.47;;
4634;SDS011;2330;48.158;11.816;2022-08-30T03:34:47;8.10;;;7.50;;
4634;SDS011;2330;48.158;11.816;2022-08-30T03:37:15;8.60;;;7.80;;
4634;SDS011;2330;48.158;11.816;2022-08-30T03:39:42;8.67;;;7.87;;
4634;SDS011;2330;48.158;11.816;2022-08-30T03:42:10;8.10;;;7.40;;
4634;SDS011;2330;48.158;11.816;2022-08-30T03:44:37;12.33;;;7.57;;
4634;SDS011;2330;48.158;11.816;2022-08-30T03:47:05;8.87;;;7.70;;
4634;SDS011;2330;48.158;11.816;2022-08-30T03:49:33;8.57;;;7.70;;
4634;SDS011;2330;48.158;11.816;2022-08-30T03:52:01;7.53;;;6.87;;
4634;SDS011;2330;48.158;11.816;2022-08-30T03:54:28;8.30;;;7.60;;
4634;SDS011;2330;48.158;11.816;2022-08-30T03:56:55;8.30;;;7.40;;
4634;SDS011;2330;48.158;11.816;2022-08-30T03:59:22;8.23;;;7.53;;
4634;SDS011;2330;48.158;11.816;2022-08-30T04:01:49;8.30;;;7.60;;
4634;SDS011;2330;48.158;11.816;2022-08-30T04:04:16;9.03;;;8.07;;
4634;SDS011;2330;48.158;11.816;2022-08-30T04:06:46;9.13;;;7.67;;
4634;SDS011;2330;48.158;11.816;2022-08-30T04:09:13;7.97;;;7.30;;
4634;SDS011;2330;48.158;11.816;2022-08-30T04:11:40;10.93;;;7.80;;
4634;SDS011;2330;48.158;11.816;2022-08-30T04:14:07;7.83;;;7.23;;
4634;SDS011;2330;48.158;11.816;2022-08-30T04:16:34;8.23;;;7.43;;
4634;SDS011;2330;48.158;11.816;2022-08-30T04:19:01;12.23;;;7.83;;
4634;SDS011;2330;48.158;11.816;2022-08-30T04:21:28;9.17;;;8.17;;
4634;SDS011;2330;48.158;11.816;2022-08-30T04:23:55;8.23;;;7.53;;
4634;SDS011;2330;48.158;11.816;2022-08-30T04:26:21;9.57;;;8.53;;
4634;SDS011;2330;48.158;11.816;2022-08-30T04:28:54;14.30;;;6.93;;
4634;SDS011;2330;48.158;11.816;2022-08-30T04:31:21;7.43;;;6.43;;
4634;SDS011;2330;48.158;11.816;2022-08-30T04:33:48;7.70;;;7.00;;
4634;SDS011;2330;48.158;11.816;2022-08-30T04:36:15;8.03;;;7.33;;
4634;SDS011;2330;48.158;11.816;2022-08-30T04:38:42;8.70;;;7.57;;
4634;SDS011;2330;48.158;11.816;2022-08-30T04:41:13;8.70;;;6.70;;
4634;SDS011;2330;48.158;11.816;2022-08-30T04:43:43;8.50;;;7.70;;
4634;SDS011;2330;48.158;11.816;2022-08-30T04:46:11;10.47;;;8.10;;
4634;SDS011;2330;48.158;11.816;2022-08-30T04:48:41;8.27;;;7.53;;
4634;SDS011;2330;48.158;11.816;2022-08-30T04:51:10;9.00;;;7.87;;
4634;SDS011;2330;48.158;11.816;2022-08-30T04:53:39;8.23;;;7.53;;
4634;SDS011;2330;48.158;11.816;2022-08-30T04:56:11;15.73;;;8.10;;
4634;SDS011;2330;48.158;11.816;2022-08-30T04:58:43;9.97;;;7.40;;
4634;SDS011;2330;48.158;11.816;2022-08-30T05:01:14;13.70;;;7.40;;
4634;SDS011;2330;48.158;11.816;2022-08-30T05:03:45;7.27;;;6.57;;
4634;SDS011;2330;48.158;11.816;2022-08-30T05:06:13;8.50;;;7.80;;
4634;SDS011;2330;48.158;11.816;2022-08-30T05:08:41;8.10;;;7.30;;
4634;SDS011;2330;48.158;11.816;2022-08-30T05:11:12;7.20;;;6.60;;
4634;SDS011;2330;48.158;11.816;2022-08-30T05:13:40;7.60;;;7.00;;
4634;SDS011;2330;48.158;11.816;2022-08-30T05:16:07;12.93;;;7.40;;
4634;SDS011;2330;48.158;11.816;2022-08-30T05:18:35;7.17;;;6.57;;
4634;SDS011;2330;48.158;11.816;2022-08-30T05:21:09;8.97;;;6.97;;
4634;SDS011;2330;48.158;11.816;2022-08-30T05:23:41;8.57;;;7.53;;
4634;SDS011;2330;48.158;11.816;2022-08-30T05:26:10;7.00;;;6.40;;
4634;SDS011;2330;48.158;11.816;2022-08-30T05:28:39;7.80;;;7.10;;
4634;SDS011;2330;48.158;11.816;2022-08-30T05:31:26;7.90;;;7.10;;
4634;SDS011;2330;48.158;11.816;2022-08-30T05:33:55;8.07;;;6.83;;
4634;SDS011;2330;48.158;11.816;2022-08-30T05:36:24;6.93;;;6.00;;
4634;SDS011;2330;48.158;11.816;2022-08-30T05:38:53;8.50;;;6.90;;
4634;SDS011;2330;48.158;11.816;2022-08-30T05:41:21;6.80;;;6.13;;
4634;SDS011;2330;48.158;11.816;2022-08-30T05:43:55;6.77;;;6.23;;
4634;SDS011;2330;48.158;11.816;2022-08-30T05:46:24;10.30;;;6.77;;
4634;SDS011;2330;48.158;11.816;2022-08-30T05:48:55;7.40;;;6.80;;
4634;SDS011;2330;48.158;11.816;2022-08-30T05:51:23;6.43;;;5.93;;
4634;SDS011;2330;48.158;11.816;2022-08-30T05:53:51;7.80;;;6.63;;
4634;SDS011;2330;48.158;11.816;2022-08-30T05:56:19;7.50;;;6.70;;
4634;SDS011;2330;48.158;11.816;2022-08-30T05:58:52;7.40;;;6.80;;
4634;SDS011;2330;48.158;11.816;2022-08-30T06:01:20;8.30;;;7.60;;
4634;SDS011;2330;48.158;11.816;2022-08-30T06:03:53;6.63;;;6.13;;
4634;SDS011;2330;48.158;11.816;2022-08-30T06:06:28;10.10;;;7.00;;
4634;SDS011;2330;48.158;11.816;2022-08-30T06:08:56;7.20;;;6.50;;
4634;SDS011;2330;48.158;11.816;2022-08-30T06:11:23;6.50;;;5.90;;
4634;SDS011;2330;48.158;11.816;2022-08-30T06:13:51;6.80;;;6.20;;
4634;SDS011;2330;48.158;11.816;2022-08-30T06:16:20;6.00;;;5.50;;
4634;SDS011;2330;48.158;11.816;2022-08-30T06:18:49;7.63;;;6.93;;
4634;SDS011;2330;48.158;11.816;2022-08-30T06:21:21;7.53;;;6.83;;
4634;SDS011;2330;48.158;11.816;2022-08-30T06:23:53;6.60;;;6.03;;
4634;SDS011;2330;48.158;11.816;2022-08-30T06:26:20;6.67;;;6.07;;
4634;SDS011;2330;48.158;11.816;2022-08-30T06:28:48;6.50;;;6.00;;
4634;SDS011;2330;48.158;11.816;2022-08-30T06:31:15;6.90;;;6.40;;
4634;SDS011;2330;48.158;11.816;2022-08-30T06:33:43;6.80;;;6.30;;
4634;SDS011;2330;48.158;11.816;2022-08-30T06:36:15;7.60;;;6.80;;
4634;SDS011;2330;48.158;11.816;2022-08-30T06:38:44;10.87;;;6.80;;
4634;SDS011;2330;48.158;11.816;2022-08-30T06:41:13;8.30;;;6.87;;
4634;SDS011;2330;48.158;11.816;2022-08-30T06:43:41;5.90;;;5.40;;
4634;SDS011;2330;48.158;11.816;2022-08-30T06:46:15;8.80;;;6.90;;
4634;SDS011;2330;48.158;11.816;2022-08-30T06:48:43;10.93;;;7.73;;
4634;SDS011;2330;48.158;11.816;2022-08-30T06:51:13;7.60;;;7.00;;
4634;SDS011;2330;48.158;11.816;2022-08-30T06:53:44;8.37;;;7.60;;
4634;SDS011;2330;48.158;11.816;2022-08-30T06:56:11;9.40;;;8.37;;
4634;SDS011;2330;48.158;11.816;2022-08-30T06:58:42;10.60;;;7.10;;
4634;SDS011;2330;48.158;11.816;2022-08-30T07:01:13;7.57;;;6.97;;
4634;SDS011;2330;48.158;11.816;2022-08-30T07:03:42;8.00;;;7.30;;
4634;SDS011;2330;48.158;11.816;2022-08-30T07:06:09;8.17;;;7.40;;
4634;SDS011;2330;48.158;11.816;2022-08-30T07:08:36;7.73;;;7.13;;
4634;SDS011;2330;48.158;11.816;2022-08-30T07:11:04;8.13;;;7.30;;
4634;SDS011;2330;48.158;11.816;2022-08-30T07:13:33;8.93;;;8.13;;
4634;SDS011;2330;48.158;11.816;2022-08-30T07:16:07;6.73;;;6.23;;
4634;SDS011;2330;48.158;11.816;2022-08-30T07:18:35;9.33;;;8.10;;
4634;SDS011;2330;48.158;11.816;2022-08-30T07:21:32;8.77;;;7.97;;
4634;SDS011;2330;48.158;11.816;2022-08-30T07:24:02;8.50;;;7.70;;
4634;SDS011;2330;48.158;11.816;2022-08-30T07:26:35;7.90;;;7.17;;
4634;SDS011;2330;48.158;11.816;2022-08-30T07:29:03;9.17;;;6.47;;
4634;SDS011;2330;48.158;11.816;2022-08-30T07:31:31;6.77;;;6.17;;
4634;SDS011;2330;48.158;11.816;2022-08-30T07:33:59;7.40;;;6.70;;
4634;SDS011;2330;48.158;11.816;2022-08-30T07:36:30;8.20;;;7.40;;
4634;SDS011;2330;48.158;11.816;2022-08-30T07:38:58;8.27;;;7.30;;
4634;SDS011;2330;48.158;11.816;2022-08-30T07:41:28;8.60;;;7.80;;
4634;SDS011;2330;48.158;11.816;2022-08-30T07:43:59;8.57;;;7.33;;
4634;SDS011;2330;48.158;11.816;2022-08-30T07:46:27;7.80;;;7.10;;
4634;SDS011;2330;48.158;11.816;2022-08-30T07:48:54;7.57;;;6.53;;
4634;SDS011;2330;48.158;11.816;2022-08-30T07:51:22;7.53;;;6.93;;
4634;SDS011;2330;48.158;11.816;2022-08-30T07:53:51;7.77;;;7.07;;
4634;SDS011;2330;48.158;11.816;2022-08-30T07:56:18;8.80;;;6.43;;
4634;SDS011;2330;48.158;11.816;2022-08-30T07:58:46;6.53;;;5.83;;
4634;SDS011;2330;48.158;11.816;2022-08-30T08:01:14;8.23;;;6.63;;
4634;SDS011;2330;48.158;11.816;2022-08-30T08:03:42;8.00;;;7.30;;
4634;SDS011;2330;48.158;11.816;2022-08-30T08:06:10;8.17;;;7.10;;
4634;SDS011;2330;48.158;11.816;2022-08-30T08:08:39;7.63;;;6.97;;
4634;SDS011;2330;48.158;11.816;2022-08-30T08:11:07;5.30;;;4.90;;
4634;SDS011;2330;48.158;11.816;2022-08-30T08:13:41;8.40;;;7.60;;
4634;SDS011;2330;48.158;11.816;2022-08-30T08:16:19;7.73;;;7.03;;
4634;SDS011;2330;48.158;11.816;2022-08-30T08:18:47;10.73;;;7.47;;
4634;SDS011;2330;48.158;11.816;2022-08-30T08:21:14;6.30;;;5.70;;
4634;SDS011;2330;48.158;11.816;2022-08-30T08:23:40;7.57;;;6.97;;
4634;SDS011;2330;48.158;11.816;2022-08-30T08:26:07;8.00;;;7.30;;
4634;SDS011;2330;48.158;11.816;2022-08-30T08:28:34;9.43;;;7.50;;
4634;SDS011;2330;48.158;11.816;2022-08-30T08:31:01;7.87;;;7.10;;
4634;SDS011;2330;48.158;11.816;2022-08-30T08:33:28;7.23;;;6.40;;
4634;SDS011;2330;48.158;11.816;2022-08-30T08:35:55;8.03;;;7.20;;
4634;SDS011;2330;48.158;11.816;2022-08-30T08:38:22;7.53;;;6.90;;
4634;SDS011;2330;48.158;11.816;2022-08-30T08:40:59;6.83;;;6.23;;
4634;SDS011;2330;48.158;11.816;2022-08-30T08:43:28;7.10;;;6.40;;
4634;SDS011;2330;48.158;11.816;2022-08-30T08:48:48;7.47;;;6.77;;
4634;SDS011;2330;48.158;11.816;2022-08-30T08:51:26;6.83;;;6.27;;
4634;SDS011;2330;48.158;11.816;2022-08-30T08:54:23;6.83;;;6.23;;
4634;SDS011;2330;48.158;11.816;2022-08-30T08:56:57;6.43;;;5.93;;
4634;SDS011;2330;48.158;11.816;2022-08-30T08:59:25;6.67;;;6.13;;
4634;SDS011;2330;48.158;11.816;2022-08-30T09:01:54;7.67;;;5.33;;
4634;SDS011;2330;48.158;11.816;2022-08-30T09:04:25;7.07;;;6.00;;
4634;SDS011;2330;48.158;11.816;2022-08-30T09:09:46;7.10;;;6.50;;
4634;SDS011;2330;48.158;11.816;2022-08-30T09:12:13;6.70;;;6.10;;
4634;SDS011;2330;48.158;11.816;2022-08-30T09:14:42;6.27;;;5.60;;
4634;SDS011;2330;48.158;11.816;2022-08-30T09:17:15;5.70;;;5.20;;
4634;SDS011;2330;48.158;11.816;2022-08-30T09:22:23;6.60;;;6.03;;
4634;SDS011;2330;48.158;11.816;2022-08-30T09:27:45;6.00;;;5.40;;
4634;SDS011;2330;48.158;11.816;2022-08-30T09:30:24;6.80;;;5.97;;
4634;SDS011;2330;48.158;11.816;2022-08-30T09:33:00;7.57;;;4.63;;
4634;SDS011;2330;48.158;11.816;2022-08-30T09:35:48;6.27;;;5.67;;
4634;SDS011;2330;48.158;11.816;2022-08-30T09:40:53;5.10;;;4.70;;
4634;SDS011;2330;48.158;11.816;2022-08-30T09:43:26;5.00;;;4.57;;
4634;SDS011;2330;48.158;11.816;2022-08-30T09:48:42;5.90;;;5.30;;
4634;SDS011;2330;48.158;11.816;2022-08-30T09:53:51;7.30;;;5.50;;
4634;SDS011;2330;48.158;11.816;2022-08-30T10:16:19;4.27;;;3.87;;
4634;SDS011;2330;48.158;11.816;2022-08-30T10:19:23;4.93;;;4.10;;
4634;SDS011;2330;48.158;11.816;2022-08-30T10:24:35;6.30;;;4.67;;
4634;SDS011;2330;48.158;11.816;2022-08-30T10:27:11;4.57;;;4.20;;
4634;SDS011;2330;48.158;11.816;2022-08-30T10:29:48;4.13;;;3.83;;
4634;SDS011;2330;48.158;11.816;2022-08-30T10:32:23;4.50;;;4.10;;
4634;SDS011;2330;48.158;11.816;2022-08-30T10:34:55;4.53;;;4.20;;
4634;SDS011;2330;48.158;11.816;2022-08-30T10:37:37;5.47;;;4.90;;
4634;SDS011;2330;48.158;11.816;2022-08-30T10:40:16;3.77;;;3.47;;
4634;SDS011;2330;48.158;11.816;2022-08-30T10:43:10;4.70;;;4.30;;
4634;SDS011;2330;48.158;11.816;2022-08-30T10:46:00;4.00;;;3.70;;
4634;SDS011;2330;48.158;11.816;2022-08-30T10:48:35;4.77;;;4.40;;
4634;SDS011;2330;48.158;11.816;2022-08-30T10:51:32;5.13;;;4.67;;
4634;SDS011;2330;48.158;11.816;2022-08-30T10:54:18;5.00;;;4.60;;
4634;SDS011;2330;48.158;11.816;2022-08-30T10:56:51;5.20;;;4.70;;
4634;SDS011;2330;48.158;11.816;2022-08-30T10:59:19;5.20;;;4.23;;
4634;SDS011;2330;48.158;11.816;2022-08-30T11:15:27;4.20;;;3.87;;
4634;SDS011;2330;48.158;11.816;2022-08-30T11:17:57;3.90;;;3.60;;
4634;SDS011;2330;48.158;11.816;2022-08-30T11:20:46;5.53;;;3.70;;
4634;SDS011;2330;48.158;11.816;2022-08-30T11:23:20;4.67;;;4.27;;
4634;SDS011;2330;48.158;11.816;2022-08-30T11:26:03;5.10;;;4.03;;
4634;SDS011;2330;48.158;11.816;2022-08-30T11:31:03;4.30;;;4.00;;
4634;SDS011;2330;48.158;11.816;2022-08-30T11:41:35;4.47;;;3.17;;
4634;SDS011;2330;48.158;11.816;2022-08-30T11:46:40;5.00;;;4.40;;
4634;SDS011;2330;48.158;11.816;2022-08-30T12:00:38;4.93;;;4.53;;
4634;SDS011;2330;48.158;11.816;2022-08-30T12:16:05;7.83;;;4.03;;
4634;SDS011;2330;48.158;11.816;2022-08-30T12:18:48;5.37;;;4.83;;
4634;SDS011;2330;48.158;11.816;2022-08-30T12:21:27;6.77;;;3.77;;
4634;SDS011;2330;48.158;11.816;2022-08-30T12:24:17;4.37;;;4.07;;
4634;SDS011;2330;48.158;11.816;2022-08-30T12:26:47;4.47;;;4.07;;
4634;SDS011;2330;48.158;11.816;2022-08-30T12:29:20;4.17;;;3.87;;
4634;SDS011;2330;48.158;11.816;2022-08-30T12:31:50;4.73;;;4.23;;
4634;SDS011;2330;48.158;11.816;2022-08-30T12:34:28;5.17;;;3.50;;
4634;SDS011;2330;48.158;11.816;2022-08-30T12:36:58;6.47;;;4.23;;
4634;SDS011;2330;48.158;11.816;2022-08-30T12:42:35;7.37;;;4.40;;
4634;SDS011;2330;48.158;11.816;2022-08-30T12:45:06;5.67;;;3.53;;
4634;SDS011;2330;48.158;11.816;2022-08-30T12:47:41;3.77;;;3.47;;
4634;SDS011;2330;48.158;11.816;2022-08-30T12:50:20;4.20;;;3.17;;
4634;SDS011;2330;48.158;11.816;2022-08-30T12:55:24;4.33;;;3.93;;
4634;SDS011;2330;48.158;11.816;2022-08-30T12:58:00;4.33;;;3.93;;
4634;SDS011;2330;48.158;11.816;2022-08-30T13:03:26;4.43;;;4.03;;
4634;SDS011;2330;48.158;11.816;2022-08-30T13:06:00;5.10;;;3.80;;
4634;SDS011;2330;48.158;11.816;2022-08-30T13:11:07;4.37;;;3.97;;
4634;SDS011;2330;48.158;11.816;2022-08-30T13:13:55;4.50;;;3.30;;
4634;SDS011;2330;48.158;11.816;2022-08-30T13:16:44;5.40;;;4.23;;
4634;SDS011;2330;48.158;11.816;2022-08-30T13:19:29;5.63;;;4.23;;
4634;SDS011;2330;48.158;11.816;2022-08-30T13:21:59;5.13;;;3.87;;
4634;SDS011;2330;48.158;11.816;2022-08-30T13:24:27;3.97;;;3.50;;
4634;SDS011;2330;48.158;11.816;2022-08-30T13:26:55;6.70;;;3.90;;
4634;SDS011;2330;48.158;11.816;2022-08-30T13:29:25;2.97;;;2.77;;
4634;SDS011;2330;48.158;11.816;2022-08-30T13:31:53;3.53;;;3.23;;
4634;SDS011;2330;48.158;11.816;2022-08-30T13:34:20;5.60;;;3.47;;
4634;SDS011;2330;48.158;11.816;2022-08-30T13:36:49;4.53;;;4.23;;
4634;SDS011;2330;48.158;11.816;2022-08-30T13:39:19;3.50;;;3.23;;
4634;SDS011;2330;48.158;11.816;2022-08-30T13:41:47;6.00;;;4.10;;
4634;SDS011;2330;48.158;11.816;2022-08-30T13:44:16;7.23;;;4.10;;
4634;SDS011;2330;48.158;11.816;2022-08-30T13:46:44;4.53;;;4.00;;
4634;SDS011;2330;48.158;11.816;2022-08-30T13:49:23;4.87;;;3.73;;
4634;SDS011;2330;48.158;11.816;2022-08-30T13:52:12;4.43;;;3.37;;
4634;SDS011;2330;48.158;11.816;2022-08-30T13:54:50;4.40;;;4.00;;
4634;SDS011;2330;48.158;11.816;2022-08-30T13:57:20;7.17;;;4.50;;
4634;SDS011;2330;48.158;11.816;2022-08-30T14:00:10;5.70;;;3.93;;
4634;SDS011;2330;48.158;11.816;2022-08-30T14:02:43;6.10;;;3.50;;
4634;SDS011;2330;48.158;11.816;2022-08-30T14:05:19;3.83;;;3.43;;
4634;SDS011;2330;48.158;11.816;2022-08-30T14:08:07;4.10;;;3.80;;
4634;SDS011;2330;48.158;11.816;2022-08-30T14:10:54;5.40;;;3.90;;
4634;SDS011;2330;48.158;11.816;2022-08-30T14:13:22;3.93;;;3.63;;
4634;SDS011;2330;48.158;11.816;2022-08-30T14:15:52;4.07;;;3.77;;
4634;SDS011;2330;48.158;11.816;2022-08-30T14:18:39;4.43;;;3.70;;
4634;SDS011;2330;48.158;11.816;2022-08-30T14:21:06;6.73;;;4.50;;
4634;SDS011;2330;48.158;11.816;2022-08-30T14:23:33;4.03;;;3.63;;
4634;SDS011;2330;48.158;11.816;2022-08-30T14:26:02;3.80;;;3.50;;
4634;SDS011;2330;48.158;11.816;2022-08-30T14:28:32;3.50;;;3.20;;
4634;SDS011;2330;48.158;11.816;2022-08-30T14:31:01;3.80;;;3.40;;
4634;SDS011;2330;48.158;11.816;2022-08-30T14:33:28;4.90;;;3.77;;
4634;SDS011;2330;48.158;11.816;2022-08-30T14:35:54;8.03;;;4.03;;
4634;SDS011;2330;48.158;11.816;2022-08-30T14:38:21;4.00;;;3.70;;
4634;SDS011;2330;48.158;11.816;2022-08-30T14:40:48;4.40;;;4.00;;
4634;SDS011;2330;48.158;11.816;2022-08-30T14:43:14;5.20;;;3.77;;
4634;SDS011;2330;48.158;11.816;2022-08-30T14:45:41;3.60;;;3.30;;
4634;SDS011;2330;48.158;11.816;2022-08-30T14:48:08;3.50;;;3.20;;
4634;SDS011;2330;48.158;11.816;2022-08-30T14:50:37;3.23;;;2.93;;
4634;SDS011;2330;48.158;11.816;2022-08-30T14:53:05;3.30;;;3.00;;
4634;SDS011;2330;48.158;11.816;2022-08-30T14:55:32;8.00;;;3.90;;
4634;SDS011;2330;48.158;11.816;2022-08-30T14:57:59;3.43;;;3.07;;
4634;SDS011;2330;48.158;11.816;2022-08-30T15:00:29;3.73;;;3.33;;
4634;SDS011;2330;48.158;11.816;2022-08-30T15:02:56;4.00;;;3.67;;
4634;SDS011;2330;48.158;11.816;2022-08-30T15:05:22;4.90;;;3.30;;
4634;SDS011;2330;48.158;11.816;2022-08-30T15:07:49;4.97;;;3.73;;
4634;SDS011;2330;48.158;11.816;2022-08-30T15:10:18;4.70;;;3.47;;
4634;SDS011;2330;48.158;11.816;2022-08-30T15:12:46;3.57;;;3.27;;
4634;SDS011;2330;48.158;11.816;2022-08-30T15:15:15;3.40;;;3.20;;
4634;SDS011;2330;48.158;11.816;2022-08-30T15:17:45;7.10;;;3.67;;
4634;SDS011;2330;48.158;11.816;2022-08-30T15:20:14;3.60;;;3.20;;
4634;SDS011;2330;48.158;11.816;2022-08-30T15:22:45;3.93;;;2.97;;
4634;SDS011;2330;48.158;11.816;2022-08-30T15:25:13;4.20;;;3.77;;
4634;SDS011;2330;48.158;11.816;2022-08-30T15:27:39;5.90;;;4.30;;
4634;SDS011;2330;48.158;11.816;2022-08-30T15:30:06;3.73;;;3.40;;
4634;SDS011;2330;48.158;11.816;2022-08-30T15:32:36;3.57;;;3.37;;
4634;SDS011;2330;48.158;11.816;2022-08-30T15:35:03;4.93;;;3.30;;
4634;SDS011;2330;48.158;11.816;2022-08-30T15:37:33;4.50;;;3.80;;
4634;SDS011;2330;48.158;11.816;2022-08-30T15:39:59;3.50;;;3.20;;
4634;SDS011;2330;48.158;11.816;2022-08-30T15:42:29;4.10;;;3.60;;
4634;SDS011;2330;48.158;11.816;2022-08-30T15:44:58;3.80;;;3.47;;
4634;SDS011;2330;48.158;11.816;2022-08-30T15:47:25;4.37;;;3.90;;
4634;SDS011;2330;48.158;11.816;2022-08-30T15:49:55;4.13;;;3.80;;
4634;SDS011;2330;48.158;11.816;2022-08-30T15:52:24;5.10;;;4.27;;
4634;SDS011;2330;48.158;11.816;2022-08-30T15:54:52;4.10;;;3.80;;
4634;SDS011;2330;48.158;11.816;2022-08-30T15:57:19;4.60;;;4.30;;
4634;SDS011;2330;48.158;11.816;2022-08-30T15:59:47;5.33;;;3.50;;
4634;SDS011;2330;48.158;11.816;2022-08-30T16:02:14;4.07;;;3.70;;
4634;SDS011;2330;48.158;11.816;2022-08-30T16:04:42;4.30;;;4.00;;
4634;SDS011;2330;48.158;11.816;2022-08-30T16:07:09;3.53;;;3.23;;
4634;SDS011;2330;48.158;11.816;2022-08-30T16:09:36;5.07;;;3.83;;
4634;SDS011;2330;48.158;11.816;2022-08-30T16:12:03;5.63;;;3.73;;
4634;SDS011;2330;48.158;11.816;2022-08-30T16:14:31;4.70;;;3.90;;
4634;SDS011;2330;48.158;11.816;2022-08-30T16:16:59;3.20;;;3.00;;
4634;SDS011;2330;48.158;11.816;2022-08-30T16:19:27;5.43;;;3.60;;
4634;SDS011;2330;48.158;11.816;2022-08-30T16:21:54;3.80;;;3.50;;
4634;SDS011;2330;48.158;11.816;2022-08-30T16:24:21;3.17;;;2.97;;
4634;SDS011;2330;48.158;11.816;2022-08-30T16:26:48;3.33;;;3.03;;
4634;SDS011;2330;48.158;11.816;2022-08-30T16:29:15;3.90;;;3.27;;
4634;SDS011;2330;48.158;11.816;2022-08-30T16:31:42;5.13;;;4.53;;
4634;SDS011;2330;48.158;11.816;2022-08-30T16:34:10;5.63;;;3.60;;
4634;SDS011;2330;48.158;11.816;2022-08-30T16:36:38;8.87;;;3.10;;
4634;SDS011;2330;48.158;11.816;2022-08-30T16:39:05;6.00;;;4.57;;
4634;SDS011;2330;48.158;11.816;2022-08-30T16:41:34;3.93;;;3.63;;
4634;SDS011;2330;48.158;11.816;2022-08-30T16:44:02;3.10;;;2.90;;
4634;SDS011;2330;48.158;11.816;2022-08-30T16:46:30;3.20;;;3.00;;
4634;SDS011;2330;48.158;11.816;2022-08-30T16:48:59;3.47;;;3.17;;
4634;SDS011;2330;48.158;11.816;2022-08-30T16:51:29;3.07;;;2.83;;
4634;SDS011;2330;48.158;11.816;2022-08-30T16:54:00;11.13;;;3.83;;
4634;SDS011;2330;48.158;11.816;2022-08-30T16:56:29;5.30;;;3.40;;
4634;SDS011;2330;48.158;11.816;2022-08-30T16:58:57;3.80;;;3.50;;
4634;SDS011;2330;48.158;11.816;2022-08-30T17:01:29;5.27;;;3.70;;
4634;SDS011;2330;48.158;11.816;2022-08-30T17:03:59;3.80;;;3.50;;
4634;SDS011;2330;48.158;11.816;2022-08-30T17:06:26;4.53;;;3.43;;
4634;SDS011;2330;48.158;11.816;2022-08-30T17:08:54;3.80;;;3.17;;
4634;SDS011;2330;48.158;11.816;2022-08-30T17:11:22;3.83;;;3.53;;